createdAt,value
2018-06-30T00:01:46.691Z,73.50
2018-06-30T00:04:14.487Z,73.60
2018-06-30T00:06:42.394Z,73.70
2018-06-30T00:09:10.209Z,73.70
2018-06-30T00:11:37.953Z,73.70
2018-06-30T00:14:05.787Z,73.90
2018-06-30T00:16:33.506Z,73.80
2018-06-30T00:19:01.206Z,73.90
2018-06-30T00:21:29.003Z,74.00
2018-06-30T00:23:56.718Z,74.10
2018-06-30T00:26:24.461Z,74.30
2018-06-30T00:28:52.150Z,74.50
2018-06-30T00:31:19.851Z,74.40
2018-06-30T00:33:47.534Z,74.70
2018-06-30T00:36:15.373Z,74.70
2018-06-30T00:38:43.096Z,75.00
2018-06-30T00:41:10.971Z,75.30
2018-06-30T00:43:38.726Z,75.70
2018-06-30T00:46:06.545Z,75.70
2018-06-30T00:48:34.422Z,75.90
2018-06-30T00:51:02.164Z,75.90
2018-06-30T00:53:29.970Z,75.70
2018-06-30T00:55:57.672Z,75.60
2018-06-30T00:58:26.325Z,75.70
2018-06-30T01:00:54.220Z,75.80
2018-06-30T01:03:21.954Z,75.80
2018-06-30T01:05:49.743Z,76.00
2018-06-30T01:08:17.476Z,76.00
2018-06-30T01:10:45.243Z,75.80
2018-06-30T01:13:12.953Z,75.70
2018-06-30T01:15:40.696Z,75.90
2018-06-30T01:18:08.425Z,75.80
2018-06-30T01:20:36.133Z,76.10
2018-06-30T01:23:03.970Z,76.10
2018-06-30T01:25:31.662Z,76.20
2018-06-30T01:27:59.424Z,76.10
2018-06-30T01:30:27.174Z,76.00
2018-06-30T01:32:54.939Z,76.30
2018-06-30T01:35:22.678Z,76.30
2018-06-30T01:37:50.367Z,76.50
2018-06-30T01:40:18.068Z,76.50
2018-06-30T01:42:45.845Z,76.50
2018-06-30T01:45:13.587Z,76.70
2018-06-30T01:47:41.343Z,77.00
2018-06-30T01:50:09.086Z,77.00
2018-06-30T01:52:36.778Z,77.00
2018-06-30T01:55:04.482Z,77.20
2018-06-30T01:57:32.248Z,77.30
2018-06-30T01:59:59.955Z,77.20
2018-06-30T02:02:27.671Z,77.20
2018-06-30T02:04:55.353Z,77.00
2018-06-30T02:07:23.094Z,77.10
2018-06-30T02:09:50.826Z,77.10
2018-06-30T02:12:18.618Z,76.80
2018-06-30T02:14:46.448Z,77.00
2018-06-30T02:17:14.150Z,77.00
2018-06-30T02:19:41.888Z,77.00
2018-06-30T02:22:09.688Z,77.60
2018-06-30T02:24:37.428Z,77.50
2018-06-30T02:27:05.123Z,77.80
2018-06-30T02:29:33.003Z,77.50
2018-06-30T02:32:00.683Z,77.80
2018-06-30T02:34:28.421Z,78.10
2018-06-30T02:36:56.141Z,78.40
2018-06-30T02:39:23.843Z,78.40
2018-06-30T02:41:51.591Z,78.10
2018-06-30T02:44:19.350Z,77.80
2018-06-30T02:46:47.173Z,77.90
2018-06-30T02:49:14.847Z,78.10
2018-06-30T02:51:42.563Z,77.90
2018-06-30T02:54:10.251Z,78.00
2018-06-30T02:56:37.992Z,77.90
2018-06-30T02:59:05.692Z,77.70
2018-06-30T03:01:33.420Z,77.60
2018-06-30T03:04:01.211Z,77.50
2018-06-30T03:06:28.944Z,77.30
2018-06-30T03:08:56.688Z,77.10
2018-06-30T03:11:24.404Z,76.90
2018-06-30T03:13:52.102Z,77.00
2018-06-30T03:16:19.875Z,76.90
2018-06-30T03:18:48.469Z,76.80
2018-06-30T03:21:16.192Z,76.70
2018-06-30T03:23:43.919Z,76.90
2018-06-30T03:26:11.869Z,77.10
2018-06-30T03:28:39.617Z,76.90
2018-06-30T03:31:08.202Z,76.70
2018-06-30T03:33:35.931Z,76.80
2018-06-30T03:36:03.703Z,76.90
2018-06-30T03:38:31.459Z,77.00
2018-06-30T03:40:59.173Z,76.90
2018-06-30T03:43:26.902Z,76.80
2018-06-30T03:45:54.623Z,76.80
2018-06-30T03:48:22.359Z,76.90
2018-06-30T03:50:50.060Z,76.80
2018-06-30T03:53:17.815Z,77.10
2018-06-30T03:55:45.531Z,77.10
2018-06-30T03:58:13.219Z,77.10
2018-06-30T04:00:41.013Z,77.20
2018-06-30T04:03:08.714Z,77.50
2018-06-30T04:05:36.409Z,78.00
2018-06-30T04:08:04.144Z,78.20
2018-06-30T04:10:31.875Z,78.30
2018-06-30T04:12:59.595Z,78.30
2018-06-30T04:15:27.321Z,78.50
2018-06-30T04:17:55.039Z,78.70
2018-06-30T04:20:22.749Z,79.00
2018-06-30T04:25:17.870Z,79.20
2018-06-30T04:27:45.570Z,79.20
2018-06-30T04:30:13.350Z,79.40
2018-06-30T04:32:41.044Z,79.40
2018-06-30T04:37:36.253Z,79.60
2018-06-30T04:40:04.295Z,79.50
2018-06-30T04:42:32.001Z,79.50
2018-06-30T04:44:59.766Z,79.30
2018-06-30T04:47:27.452Z,79.20
2018-06-30T04:49:55.161Z,79.30
2018-06-30T04:52:22.893Z,79.30
2018-06-30T04:54:50.667Z,79.20
2018-06-30T04:57:18.365Z,79.20
2018-06-30T04:59:46.168Z,79.20
2018-06-30T05:02:13.919Z,78.40
2018-06-30T05:04:41.608Z,79.20
2018-06-30T05:07:09.839Z,79.00
2018-06-30T05:09:37.546Z,79.10
2018-06-30T05:12:05.642Z,79.20
2018-06-30T05:14:33.412Z,79.10
2018-06-30T05:17:01.211Z,79.20
2018-06-30T05:19:28.966Z,79.20
2018-06-30T05:21:56.799Z,79.30
2018-06-30T05:24:24.526Z,79.40
2018-06-30T05:26:52.264Z,79.40
2018-06-30T05:29:19.967Z,79.40
2018-06-30T05:31:47.652Z,79.60
2018-06-30T05:34:15.387Z,80.10
2018-06-30T05:36:43.199Z,80.20
2018-06-30T05:39:11.005Z,79.90
2018-06-30T05:41:39.621Z,80.10
2018-06-30T05:44:08.156Z,80.00
2018-06-30T05:46:36.707Z,81.10
2018-06-30T05:49:05.365Z,79.80
2018-06-30T05:51:33.896Z,79.90
2018-06-30T05:54:02.400Z,79.80
2018-06-30T05:56:30.948Z,79.70
2018-06-30T05:58:59.487Z,79.70
2018-06-30T06:01:28.206Z,79.40
2018-06-30T06:06:25.112Z,79.30
2018-06-30T06:08:53.830Z,79.00
2018-06-30T06:11:22.375Z,78.90
2018-06-30T06:13:50.895Z,78.70
2018-06-30T06:16:19.376Z,78.70
2018-06-30T06:18:47.879Z,79.10
2018-06-30T06:21:16.412Z,78.20
2018-06-30T06:23:44.936Z,78.00
2018-06-30T06:26:13.719Z,77.90
2018-06-30T06:28:42.324Z,77.90
2018-06-30T06:31:10.871Z,77.80
2018-06-30T06:33:39.431Z,77.70
2018-06-30T06:36:08.141Z,77.50
2018-06-30T06:38:36.854Z,77.50
2018-06-30T06:41:05.655Z,77.40
2018-06-30T06:43:34.350Z,77.20
2018-06-30T06:46:02.907Z,77.10
2018-06-30T06:48:31.464Z,77.00
2018-06-30T06:51:00.012Z,76.90
2018-06-30T06:53:28.476Z,76.80
2018-06-30T06:55:57.133Z,76.70
2018-06-30T06:58:25.644Z,76.80
2018-06-30T07:00:54.419Z,76.60
2018-06-30T07:03:22.943Z,76.30
2018-06-30T07:05:51.876Z,76.10
2018-06-30T07:08:21.655Z,76.10
2018-06-30T07:10:51.027Z,76.10
2018-06-30T07:13:19.688Z,76.00
2018-06-30T07:15:49.017Z,76.00
2018-06-30T07:18:18.185Z,76.20
2018-06-30T07:20:47.428Z,75.90
2018-06-30T07:23:16.246Z,75.70
2018-06-30T07:25:45.173Z,75.50
2018-06-30T07:28:14.379Z,75.40
2018-06-30T07:30:43.336Z,75.50
2018-06-30T07:33:12.656Z,75.40
2018-06-30T07:35:41.614Z,75.20
2018-06-30T07:38:10.936Z,74.70
2018-06-30T07:40:39.587Z,74.30
2018-06-30T07:43:08.354Z,74.60
2018-06-30T07:45:36.922Z,74.80
2018-06-30T07:48:06.116Z,74.30
2018-06-30T07:50:34.938Z,74.50
2018-06-30T07:53:03.577Z,74.40
2018-06-30T07:55:32.059Z,74.90
2018-06-30T07:58:00.612Z,73.90
2018-06-30T08:00:29.287Z,73.30
2018-06-30T08:02:57.876Z,73.40
2018-06-30T08:07:54.700Z,73.50
2018-06-30T08:10:23.228Z,73.50
2018-06-30T08:12:51.861Z,73.30
2018-06-30T08:15:20.375Z,73.50
2018-06-30T08:17:49.139Z,73.50
2018-06-30T08:20:17.651Z,73.40
2018-06-30T08:22:46.306Z,73.10
2018-06-30T08:25:15.027Z,73.40
2018-06-30T08:27:43.660Z,73.50
2018-06-30T08:30:12.249Z,73.10
2018-06-30T08:32:40.823Z,73.00
2018-06-30T08:35:09.348Z,72.90
2018-06-30T08:37:37.921Z,72.40
2018-06-30T08:40:06.548Z,72.30
2018-06-30T08:42:35.206Z,72.10
2018-06-30T08:45:03.845Z,71.70
2018-06-30T08:47:32.406Z,71.50
2018-06-30T08:50:00.893Z,70.90
2018-06-30T08:52:29.424Z,70.60
2018-06-30T08:54:57.929Z,70.00
2018-06-30T08:57:26.480Z,69.50
2018-06-30T08:59:55.057Z,68.70
2018-06-30T09:02:23.703Z,68.90
2018-06-30T09:04:52.458Z,69.00
2018-06-30T09:07:21.101Z,68.20
2018-06-30T09:09:49.779Z,67.90
2018-06-30T09:12:18.589Z,66.80
2018-06-30T09:14:47.015Z,67.20
2018-06-30T09:17:15.727Z,67.20
2018-06-30T09:19:44.319Z,65.90
2018-06-30T09:22:12.915Z,65.50
2018-06-30T09:24:41.543Z,64.60
2018-06-30T09:27:10.732Z,62.80
2018-06-30T09:29:39.615Z,62.90
2018-06-30T09:32:08.750Z,63.10
2018-06-30T09:34:37.316Z,62.60
2018-06-30T09:37:06.077Z,63.00
2018-06-30T09:39:34.616Z,62.50
2018-06-30T09:42:03.357Z,62.30
2018-06-30T09:44:32.279Z,61.70
2018-06-30T09:47:00.820Z,61.30
2018-06-30T09:49:29.300Z,60.40
2018-06-30T09:51:57.874Z,60.50
2018-06-30T09:54:26.447Z,59.20
2018-06-30T09:56:55.008Z,59.30
2018-06-30T09:59:23.771Z,60.00
2018-06-30T10:01:52.473Z,59.10
2018-06-30T10:04:21.008Z,58.50
2018-06-30T10:06:49.636Z,57.60
2018-06-30T10:09:18.188Z,57.70
2018-06-30T10:11:46.835Z,57.50
2018-06-30T10:14:15.355Z,57.30
2018-06-30T10:16:44.049Z,57.50
2018-06-30T10:19:12.697Z,57.00
2018-06-30T10:21:41.268Z,54.90
2018-06-30T10:24:10.104Z,54.60
2018-06-30T10:26:39.161Z,55.20
2018-06-30T10:29:07.760Z,53.60
2018-06-30T10:31:36.577Z,53.10
2018-06-30T10:34:05.487Z,52.50
2018-06-30T10:36:33.978Z,52.60
2018-06-30T10:41:31.024Z,51.90
2018-06-30T10:43:59.651Z,51.50
2018-06-30T10:46:28.238Z,50.40
2018-06-30T10:48:56.964Z,49.80
2018-06-30T10:51:25.980Z,50.20
2018-06-30T10:53:54.539Z,49.40
2018-06-30T10:56:23.051Z,48.60
2018-06-30T10:58:51.816Z,49.10
2018-06-30T11:01:20.541Z,50.10
2018-06-30T11:03:49.073Z,48.80
2018-06-30T11:06:17.659Z,49.20
2018-06-30T11:08:46.180Z,48.10
2018-06-30T11:11:14.724Z,46.60
2018-06-30T11:13:43.264Z,46.80
2018-06-30T11:16:11.910Z,46.10
2018-06-30T11:18:40.563Z,45.40
2018-06-30T11:21:09.192Z,47.50
2018-06-30T11:23:37.837Z,46.90
2018-06-30T11:26:06.535Z,46.80
2018-06-30T11:28:35.117Z,45.60
2018-06-30T11:31:03.751Z,45.40
2018-06-30T11:33:32.362Z,45.60
2018-06-30T11:36:00.970Z,44.40
2018-06-30T11:38:29.611Z,44.10
2018-06-30T11:40:58.216Z,44.30
2018-06-30T11:43:26.747Z,45.10
2018-06-30T11:45:55.412Z,44.80
2018-06-30T11:48:23.891Z,44.10
2018-06-30T11:50:52.446Z,43.30
2018-06-30T11:53:21.229Z,43.00
2018-06-30T11:55:49.767Z,42.20
2018-06-30T11:58:18.283Z,42.60
2018-06-30T12:00:47.062Z,40.90
2018-06-30T12:03:15.630Z,40.90
2018-06-30T12:05:44.150Z,40.90
2018-06-30T12:08:12.761Z,40.60
2018-06-30T12:10:41.430Z,40.20
2018-06-30T12:13:09.996Z,40.00
2018-06-30T12:15:38.804Z,39.70
2018-06-30T12:18:07.711Z,39.60
2018-06-30T12:20:36.231Z,39.80
2018-06-30T12:23:04.747Z,39.00
2018-06-30T12:25:33.667Z,38.30
2018-06-30T12:30:30.377Z,38.10
2018-06-30T12:32:59.074Z,38.40
2018-06-30T12:35:26.774Z,37.50
2018-06-30T12:37:54.515Z,37.60
2018-06-30T12:40:22.224Z,37.80
2018-06-30T12:42:50.068Z,37.80
2018-06-30T12:45:17.961Z,38.00
2018-06-30T12:47:45.730Z,38.70
2018-06-30T12:50:13.638Z,38.40
2018-06-30T12:52:42.265Z,37.90
2018-06-30T12:55:11.161Z,37.10
2018-06-30T12:57:40.064Z,38.10
2018-06-30T13:00:08.596Z,38.00
2018-06-30T13:02:37.413Z,38.10
2018-06-30T13:05:05.747Z,37.60
2018-06-30T13:07:34.248Z,37.70
2018-06-30T13:10:02.921Z,37.60
2018-06-30T13:12:31.785Z,38.10
2018-06-30T13:15:00.083Z,37.40
2018-06-30T13:17:28.435Z,36.80
2018-06-30T13:19:56.714Z,37.20
2018-06-30T13:22:25.323Z,37.10
2018-06-30T13:27:20.968Z,35.50
2018-06-30T13:29:48.854Z,35.80
2018-06-30T13:32:16.913Z,37.00
2018-06-30T13:34:44.771Z,37.00
2018-06-30T13:37:12.663Z,36.20
2018-06-30T13:39:40.420Z,36.00
2018-06-30T13:42:08.357Z,36.20
2018-06-30T13:44:36.123Z,35.70
2018-06-30T13:47:03.979Z,36.70
2018-06-30T13:49:31.862Z,36.10
2018-06-30T13:51:59.625Z,35.80
2018-06-30T13:54:27.492Z,36.50
2018-06-30T13:56:56.207Z,37.30
2018-06-30T13:59:24.873Z,37.30
2018-06-30T14:01:53.611Z,36.40
2018-06-30T14:04:22.331Z,37.10
2018-06-30T14:06:51.007Z,36.80
2018-06-30T14:09:19.572Z,37.00
2018-06-30T14:11:48.177Z,36.70
2018-06-30T14:14:16.669Z,36.60
2018-06-30T14:16:45.258Z,35.90
2018-06-30T14:19:13.973Z,35.60
2018-06-30T14:21:42.612Z,35.90
2018-06-30T14:24:11.159Z,36.10
2018-06-30T14:26:39.854Z,36.40
2018-06-30T14:29:08.461Z,36.70
2018-06-30T14:31:37.213Z,36.90
2018-06-30T14:34:05.828Z,37.00
2018-06-30T14:39:02.777Z,37.10
2018-06-30T14:41:31.334Z,36.00
2018-06-30T14:43:59.952Z,36.10
2018-06-30T14:46:28.548Z,36.60
2018-06-30T14:48:57.476Z,37.00
2018-06-30T14:51:26.041Z,36.00
2018-06-30T14:53:54.660Z,36.50
2018-06-30T14:56:23.212Z,36.70
2018-06-30T14:58:51.808Z,36.70
2018-06-30T15:01:20.547Z,37.10
2018-06-30T15:03:49.163Z,36.60
2018-06-30T15:06:17.740Z,36.80
2018-06-30T15:08:46.267Z,36.40
2018-06-30T15:11:14.852Z,36.70
2018-06-30T15:13:43.889Z,36.90
2018-06-30T15:16:12.452Z,37.50
2018-06-30T15:18:41.071Z,36.50
2018-06-30T15:21:09.869Z,36.40
2018-06-30T15:23:38.589Z,36.40
2018-06-30T15:26:07.252Z,36.40
2018-06-30T15:28:36.048Z,37.10
2018-06-30T15:31:04.715Z,37.20
2018-06-30T15:33:33.241Z,37.20
2018-06-30T15:36:02.011Z,38.30
2018-06-30T15:38:30.519Z,38.10
2018-06-30T15:40:59.117Z,38.80
2018-06-30T15:43:27.647Z,37.90
2018-06-30T15:45:56.252Z,38.00
2018-06-30T15:48:24.835Z,37.70
2018-06-30T15:50:53.502Z,37.90
2018-06-30T15:53:22.143Z,38.30
2018-06-30T15:55:50.669Z,37.90
2018-06-30T15:58:19.216Z,37.50
2018-06-30T16:00:48.010Z,37.70
2018-06-30T16:03:16.743Z,37.90
2018-06-30T16:05:45.372Z,38.00
2018-06-30T16:08:13.131Z,37.70
2018-06-30T16:10:41.684Z,37.60
2018-06-30T16:13:10.265Z,37.90
2018-06-30T16:15:38.911Z,38.00
2018-06-30T16:18:07.832Z,38.00
2018-06-30T16:20:36.474Z,38.10
2018-06-30T16:23:05.114Z,37.90
2018-06-30T16:25:33.887Z,38.30
2018-06-30T16:28:02.491Z,38.40
2018-06-30T16:30:31.340Z,38.20
2018-06-30T16:32:59.966Z,38.60
2018-06-30T16:35:28.620Z,38.40
2018-06-30T16:40:25.621Z,38.60
2018-06-30T16:42:54.145Z,38.60
2018-06-30T16:45:22.869Z,38.50
2018-06-30T16:47:51.444Z,39.30
2018-06-30T16:50:20.107Z,39.50
2018-06-30T16:52:48.673Z,38.40
2018-06-30T16:55:17.257Z,38.80
2018-06-30T16:57:45.895Z,38.40
2018-06-30T17:00:14.461Z,38.80
2018-06-30T17:02:43.023Z,38.70
2018-06-30T17:05:11.632Z,38.80
2018-06-30T17:07:40.189Z,39.10
2018-06-30T17:10:08.851Z,39.60
2018-06-30T17:12:37.394Z,39.60
2018-06-30T17:15:06.282Z,39.60
2018-06-30T17:17:34.920Z,39.50
2018-06-30T17:20:03.519Z,39.70
2018-06-30T17:22:32.109Z,39.50
2018-06-30T17:25:00.764Z,39.30
2018-06-30T17:27:29.316Z,39.40
2018-06-30T17:29:57.848Z,39.90
2018-06-30T17:32:26.408Z,39.80
2018-06-30T17:34:55.147Z,39.90
2018-06-30T17:37:24.072Z,39.90
2018-06-30T17:39:52.634Z,39.80
2018-06-30T17:42:21.387Z,39.70
2018-06-30T17:44:49.908Z,40.00
2018-06-30T17:47:18.479Z,39.80
2018-06-30T17:49:47.151Z,40.00
2018-06-30T17:52:15.091Z,39.80
2018-06-30T17:54:42.877Z,40.20
2018-06-30T17:57:10.751Z,40.40
2018-06-30T17:59:38.961Z,40.40
2018-06-30T18:02:07.494Z,40.20
2018-06-30T18:04:36.061Z,40.40
2018-06-30T18:07:05.596Z,40.40
2018-06-30T18:09:35.078Z,40.20
2018-06-30T18:12:03.721Z,40.80
2018-06-30T18:14:32.399Z,41.30
2018-06-30T18:17:01.888Z,41.00
2018-06-30T18:19:31.368Z,41.40
2018-06-30T18:22:00.753Z,41.50
2018-06-30T18:24:29.315Z,41.10
2018-06-30T18:26:58.282Z,41.20
2018-06-30T18:29:26.953Z,41.00
2018-06-30T18:31:56.318Z,40.50
2018-06-30T18:34:24.906Z,40.40
2018-06-30T18:36:54.568Z,40.50
2018-06-30T18:39:23.804Z,40.60
2018-06-30T18:41:53.267Z,40.80
2018-06-30T18:44:21.890Z,40.50
2018-06-30T18:46:50.530Z,40.50
2018-06-30T18:49:19.169Z,39.50
2018-06-30T18:51:47.919Z,40.00
2018-06-30T18:54:16.636Z,40.00
2018-06-30T18:56:45.300Z,40.30
2018-06-30T18:59:13.919Z,40.00
2018-06-30T19:01:42.585Z,39.40
2018-06-30T19:04:11.411Z,39.10
2018-06-30T19:06:40.053Z,39.10
2018-06-30T19:09:10.170Z,38.90
2018-06-30T19:11:39.149Z,38.40
2018-06-30T19:14:08.582Z,37.90
2018-06-30T19:16:37.371Z,38.00
2018-06-30T19:19:06.255Z,38.60
2018-06-30T19:21:34.895Z,38.60
2018-06-30T19:24:03.737Z,39.00
2018-06-30T19:26:32.428Z,39.30
2018-06-30T19:29:01.098Z,39.20
2018-06-30T19:31:29.747Z,38.90
2018-06-30T19:33:58.653Z,42.90
2018-06-30T19:36:27.274Z,45.20
2018-06-30T19:38:56.116Z,45.10
2018-06-30T19:41:25.626Z,44.30
2018-06-30T19:43:54.957Z,43.90
2018-06-30T19:46:24.256Z,41.80
2018-06-30T19:48:53.103Z,42.70
2018-06-30T19:51:21.797Z,41.00
2018-06-30T19:53:50.468Z,41.40
2018-06-30T19:56:19.954Z,40.10
2018-06-30T19:58:48.762Z,40.60
2018-06-30T20:01:17.399Z,40.40
2018-06-30T20:03:46.694Z,39.20
2018-06-30T20:06:15.251Z,39.40
2018-06-30T20:08:44.020Z,37.50
2018-06-30T20:11:12.688Z,38.40
2018-06-30T20:13:41.323Z,39.40
2018-06-30T20:16:09.957Z,38.70
2018-06-30T20:18:39.423Z,39.30
2018-06-30T20:21:09.041Z,41.50
2018-06-30T20:23:37.645Z,39.80
2018-06-30T20:26:06.704Z,39.70
2018-06-30T20:28:35.642Z,39.50
2018-06-30T20:31:04.362Z,39.30
2018-06-30T20:33:33.016Z,39.20
2018-06-30T20:36:01.805Z,37.30
2018-06-30T20:40:59.303Z,38.50
2018-06-30T20:43:27.872Z,37.50
2018-06-30T20:48:24.648Z,37.30
2018-06-30T20:50:53.416Z,37.10
2018-06-30T20:53:22.132Z,36.40
2018-06-30T20:55:50.827Z,37.40
2018-06-30T20:58:19.420Z,37.30
2018-06-30T21:00:48.051Z,35.30
2018-06-30T21:03:16.699Z,35.70
2018-06-30T21:05:45.407Z,34.30
2018-06-30T21:08:14.119Z,34.10
2018-06-30T21:10:42.733Z,34.20
2018-06-30T21:13:11.430Z,33.80
2018-06-30T21:15:40.072Z,33.60
2018-06-30T21:18:08.620Z,33.70
2018-06-30T21:20:37.291Z,34.20
2018-06-30T21:23:06.160Z,34.40
2018-06-30T21:25:34.714Z,34.30
2018-06-30T21:28:03.624Z,33.80
2018-06-30T21:30:32.190Z,33.70
2018-06-30T21:33:00.844Z,34.10
2018-06-30T21:35:29.384Z,34.50
2018-06-30T21:37:57.992Z,34.90
2018-06-30T21:40:26.670Z,34.60
2018-06-30T21:42:55.404Z,35.00
2018-06-30T21:45:24.065Z,35.00
2018-06-30T21:47:52.890Z,35.10
2018-06-30T21:50:21.498Z,35.40
2018-06-30T21:52:50.240Z,35.50
2018-06-30T21:55:18.809Z,35.30
2018-06-30T21:57:47.475Z,35.30
2018-06-30T22:00:18.579Z,35.40
2018-06-30T22:02:47.183Z,35.30
2018-06-30T22:05:15.776Z,35.50
2018-06-30T22:07:44.413Z,35.60
2018-06-30T22:10:13.073Z,36.10
2018-06-30T22:12:41.746Z,36.80
2018-06-30T22:17:38.710Z,37.60
2018-06-30T22:22:35.847Z,37.80
2018-06-30T22:25:04.553Z,36.70
2018-06-30T22:30:01.649Z,36.20
2018-06-30T22:32:30.219Z,36.40
2018-06-30T22:34:58.884Z,36.20
2018-06-30T22:37:27.757Z,36.30
2018-06-30T22:40:07.729Z,35.40
2018-06-30T22:42:36.568Z,35.80
2018-06-30T22:45:05.276Z,35.30
2018-06-30T22:47:33.989Z,35.30
2018-06-30T22:50:02.576Z,35.80
2018-06-30T22:52:31.258Z,36.50
2018-06-30T22:55:00.008Z,36.20
2018-06-30T22:57:28.799Z,36.00
2018-06-30T22:59:57.505Z,36.80
2018-06-30T23:02:26.707Z,37.50
2018-06-30T23:04:55.805Z,37.00
2018-06-30T23:07:24.379Z,36.90
2018-06-30T23:09:54.316Z,37.50
2018-06-30T23:12:23.810Z,37.40
2018-06-30T23:14:52.813Z,37.00
2018-06-30T23:17:22.368Z,36.60
2018-06-30T23:19:51.342Z,36.90
2018-06-30T23:22:34.168Z,37.50
2018-06-30T23:25:03.440Z,37.50
2018-06-30T23:27:32.641Z,38.50
2018-06-30T23:30:01.744Z,38.60
2018-06-30T23:32:31.219Z,38.80
2018-06-30T23:35:00.183Z,39.10
2018-06-30T23:37:29.029Z,38.40
2018-06-30T23:39:58.646Z,39.20
2018-06-30T23:42:28.510Z,38.50
2018-06-30T23:44:57.862Z,38.70
2018-06-30T23:47:28.001Z,38.70
2018-06-30T23:49:57.402Z,39.20
2018-06-30T23:52:26.898Z,39.20
2018-06-30T23:54:55.428Z,39.20
2018-06-30T23:57:24.016Z,39.30
2018-06-30T23:59:52.877Z,39.50
